sensor_id;sensor_type;location;lat;lon;timestamp;P1;durP1;ratioP1;P2;durP2;ratioP2
18716;SDS011;9487;50.892;6.906;2023-06-22T09:46:05;9.57;;;8.88;;
18716;SDS011;9487;50.892;6.906;2023-06-22T09:48:34;9.30;;;8.60;;
18716;SDS011;9487;50.892;6.906;2023-06-22T09:51:01;9.30;;;8.60;;
18716;SDS011;9487;50.892;6.906;2023-06-22T09:53:28;9.13;;;8.43;;
18716;SDS011;9487;50.892;6.906;2023-06-22T09:55:54;9.60;;;8.80;;
18716;SDS011;9487;50.892;6.906;2023-06-22T09:58:22;8.90;;;8.15;;
18716;SDS011;9487;50.892;6.906;2023-06-22T10:00:49;9.13;;;8.32;;
18716;SDS011;9487;50.892;6.906;2023-06-22T10:03:17;9.20;;;8.50;;
18716;SDS011;9487;50.892;6.906;2023-06-22T10:05:44;8.85;;;8.18;;
18716;SDS011;9487;50.892;6.906;2023-06-22T10:08:11;9.60;;;8.80;;
18716;SDS011;9487;50.892;6.906;2023-06-22T10:10:38;10.20;;;9.32;;
18716;SDS011;9487;50.892;6.906;2023-06-22T10:13:07;10.20;;;9.50;;
18716;SDS011;9487;50.892;6.906;2023-06-22T10:15:36;8.90;;;8.20;;
18716;SDS011;9487;50.892;6.906;2023-06-22T10:18:03;10.15;;;9.23;;
18716;SDS011;9487;50.892;6.906;2023-06-22T10:20:32;10.32;;;9.43;;
18716;SDS011;9487;50.892;6.906;2023-06-22T10:22:59;10.18;;;8.95;;
18716;SDS011;9487;50.892;6.906;2023-06-22T10:25:26;10.02;;;9.23;;
18716;SDS011;9487;50.892;6.906;2023-06-22T10:27:53;9.63;;;8.93;;
18716;SDS011;9487;50.892;6.906;2023-06-22T10:30:20;10.13;;;9.32;;
18716;SDS011;9487;50.892;6.906;2023-06-22T10:32:47;9.50;;;8.80;;
18716;SDS011;9487;50.892;6.906;2023-06-22T10:35:14;11.27;;;10.27;;
18716;SDS011;9487;50.892;6.906;2023-06-22T10:37:42;10.32;;;9.43;;
18716;SDS011;9487;50.892;6.906;2023-06-22T10:40:10;11.15;;;10.15;;
18716;SDS011;9487;50.892;6.906;2023-06-22T10:42:38;11.38;;;10.48;;
18716;SDS011;9487;50.892;6.906;2023-06-22T10:45:06;12.23;;;11.23;;
18716;SDS011;9487;50.892;6.906;2023-06-22T10:47:33;12.48;;;11.38;;
18716;SDS011;9487;50.892;6.906;2023-06-22T10:50:01;13.13;;;11.98;;
18716;SDS011;9487;50.892;6.906;2023-06-22T10:52:28;13.15;;;12.02;;
18716;SDS011;9487;50.892;6.906;2023-06-22T10:54:57;13.25;;;12.15;;
18716;SDS011;9487;50.892;6.906;2023-06-22T10:57:24;15.40;;;14.00;;
18716;SDS011;9487;50.892;6.906;2023-06-22T10:59:50;14.70;;;13.40;;
18716;SDS011;9487;50.892;6.906;2023-06-22T11:02:17;14.95;;;13.63;;
18716;SDS011;9487;50.892;6.906;2023-06-22T11:04:44;16.10;;;14.45;;
18716;SDS011;9487;50.892;6.906;2023-06-22T11:07:12;17.17;;;15.67;;
18716;SDS011;9487;50.892;6.906;2023-06-22T11:09:39;17.03;;;15.53;;
18716;SDS011;9487;50.892;6.906;2023-06-22T11:12:08;18.43;;;16.77;;
18716;SDS011;9487;50.892;6.906;2023-06-22T11:14:35;19.10;;;17.40;;
18716;SDS011;9487;50.892;6.906;2023-06-22T11:17:02;20.53;;;18.73;;
18716;SDS011;9487;50.892;6.906;2023-06-22T11:19:29;22.27;;;20.03;;
18716;SDS011;9487;50.892;6.906;2023-06-22T11:21:56;21.03;;;19.13;;
18716;SDS011;9487;50.892;6.906;2023-06-22T11:24:23;20.60;;;18.80;;
18716;SDS011;9487;50.892;6.906;2023-06-22T11:26:50;20.47;;;18.57;;
18716;SDS011;9487;50.892;6.906;2023-06-22T11:29:18;18.93;;;17.20;;
18716;SDS011;9487;50.892;6.906;2023-06-22T11:31:45;19.70;;;18.00;;
18716;SDS011;9487;50.892;6.906;2023-06-22T11:34:12;18.10;;;16.50;;
18716;SDS011;9487;50.892;6.906;2023-06-22T11:36:39;19.70;;;17.70;;
18716;SDS011;9487;50.892;6.906;2023-06-22T11:39:08;21.90;;;19.90;;
18716;SDS011;9487;50.892;6.906;2023-06-22T11:41:35;23.30;;;21.20;;
18716;SDS011;9487;50.892;6.906;2023-06-22T11:44:02;21.40;;;19.57;;
18716;SDS011;9487;50.892;6.906;2023-06-22T11:46:31;21.00;;;19.20;;
18716;SDS011;9487;50.892;6.906;2023-06-22T11:49:00;18.90;;;17.30;;
18716;SDS011;9487;50.892;6.906;2023-06-22T11:51:29;17.33;;;15.90;;
18716;SDS011;9487;50.892;6.906;2023-06-22T11:53:56;18.00;;;16.50;;
18716;SDS011;9487;50.892;6.906;2023-06-22T11:56:23;16.40;;;14.98;;
18716;SDS011;9487;50.892;6.906;2023-06-22T11:58:50;17.48;;;15.77;;
18716;SDS011;9487;50.892;6.906;2023-06-22T12:01:17;16.42;;;15.10;;
18716;SDS011;9487;50.892;6.906;2023-06-22T12:03:45;18.15;;;16.48;;
18716;SDS011;9487;50.892;6.906;2023-06-22T12:06:13;19.58;;;17.83;;
18716;SDS011;9487;50.892;6.906;2023-06-22T12:08:40;19.92;;;18.23;;
18716;SDS011;9487;50.892;6.906;2023-06-22T12:11:07;21.55;;;19.45;;
18716;SDS011;9487;50.892;6.906;2023-06-22T12:13:34;21.25;;;19.38;;
18716;SDS011;9487;50.892;6.906;2023-06-22T12:16:01;20.05;;;18.35;;
18716;SDS011;9487;50.892;6.906;2023-06-22T12:18:28;20.90;;;19.10;;
18716;SDS011;9487;50.892;6.906;2023-06-22T12:20:56;21.00;;;19.10;;
18716;SDS011;9487;50.892;6.906;2023-06-22T12:23:23;19.40;;;17.60;;
18716;SDS011;9487;50.892;6.906;2023-06-22T12:25:50;20.00;;;18.15;;
18716;SDS011;9487;50.892;6.906;2023-06-22T12:28:16;21.08;;;19.15;;
18716;SDS011;9487;50.892;6.906;2023-06-22T12:30:43;20.03;;;18.43;;
18716;SDS011;9487;50.892;6.906;2023-06-22T12:33:10;20.60;;;18.90;;
18716;SDS011;9487;50.892;6.906;2023-06-22T12:35:37;19.90;;;18.23;;
18716;SDS011;9487;50.892;6.906;2023-06-22T12:38:05;20.57;;;18.73;;
18716;SDS011;9487;50.892;6.906;2023-06-22T12:40:33;20.67;;;18.90;;
18716;SDS011;9487;50.892;6.906;2023-06-22T12:43:00;21.63;;;19.73;;
18716;SDS011;9487;50.892;6.906;2023-06-22T12:45:27;20.03;;;18.23;;
18716;SDS011;9487;50.892;6.906;2023-06-22T12:47:56;18.67;;;16.97;;
18716;SDS011;9487;50.892;6.906;2023-06-22T12:50:24;21.03;;;19.03;;
18716;SDS011;9487;50.892;6.906;2023-06-22T12:52:51;17.00;;;15.63;;
18716;SDS011;9487;50.892;6.906;2023-06-22T12:55:19;16.15;;;14.80;;
18716;SDS011;9487;50.892;6.906;2023-06-22T12:57:46;16.70;;;15.20;;
18716;SDS011;9487;50.892;6.906;2023-06-22T13:00:13;16.10;;;14.63;;
18716;SDS011;9487;50.892;6.906;2023-06-22T13:02:41;16.55;;;15.18;;
18716;SDS011;9487;50.892;6.906;2023-06-22T13:05:08;17.40;;;16.00;;
18716;SDS011;9487;50.892;6.906;2023-06-22T13:07:35;16.48;;;15.00;;
18716;SDS011;9487;50.892;6.906;2023-06-22T13:10:02;16.45;;;15.05;;
18716;SDS011;9487;50.892;6.906;2023-06-22T13:12:31;16.35;;;14.90;;
18716;SDS011;9487;50.892;6.906;2023-06-22T13:14:58;16.65;;;15.25;;
18716;SDS011;9487;50.892;6.906;2023-06-22T13:17:25;16.25;;;14.95;;
18716;SDS011;9487;50.892;6.906;2023-06-22T13:19:52;15.20;;;13.90;;
18716;SDS011;9487;50.892;6.906;2023-06-22T13:22:26;14.60;;;13.40;;
18716;SDS011;9487;50.892;6.906;2023-06-22T13:24:54;15.90;;;14.50;;
18716;SDS011;9487;50.892;6.906;2023-06-22T13:27:21;14.05;;;12.93;;
18716;SDS011;9487;50.892;6.906;2023-06-22T13:29:49;15.43;;;14.23;;
18716;SDS011;9487;50.892;6.906;2023-06-22T13:32:16;14.63;;;13.50;;
18716;SDS011;9487;50.892;6.906;2023-06-22T13:34:43;13.60;;;12.52;;
18716;SDS011;9487;50.892;6.906;2023-06-22T13:37:11;15.00;;;13.50;;
18716;SDS011;9487;50.892;6.906;2023-06-22T13:39:37;12.88;;;11.88;;
18716;SDS011;9487;50.892;6.906;2023-06-22T13:42:04;13.30;;;12.13;;
18716;SDS011;9487;50.892;6.906;2023-06-22T13:44:32;13.30;;;12.10;;
18716;SDS011;9487;50.892;6.906;2023-06-22T13:47:01;12.75;;;11.65;;
18716;SDS011;9487;50.892;6.906;2023-06-22T13:49:28;12.20;;;11.13;;
18716;SDS011;9487;50.892;6.906;2023-06-22T13:51:54;11.35;;;10.35;;
18716;SDS011;9487;50.892;6.906;2023-06-22T13:54:21;11.85;;;10.85;;
18716;SDS011;9487;50.892;6.906;2023-06-22T13:56:48;12.02;;;10.88;;
18716;SDS011;9487;50.892;6.906;2023-06-22T13:59:15;10.90;;;10.10;;
18716;SDS011;9487;50.892;6.906;2023-06-22T14:01:42;11.00;;;10.10;;
18716;SDS011;9487;50.892;6.906;2023-06-22T14:04:11;10.25;;;9.45;;
18716;SDS011;9487;50.892;6.906;2023-06-22T14:06:38;11.10;;;10.10;;
18716;SDS011;9487;50.892;6.906;2023-06-22T14:09:04;10.52;;;9.63;;
18716;SDS011;9487;50.892;6.906;2023-06-22T14:11:32;9.52;;;8.73;;
18716;SDS011;9487;50.892;6.906;2023-06-22T14:13:58;8.88;;;8.18;;
18716;SDS011;9487;50.892;6.906;2023-06-22T14:16:25;9.32;;;8.52;;
18716;SDS011;9487;50.892;6.906;2023-06-22T14:18:52;8.43;;;7.72;;
18716;SDS011;9487;50.892;6.906;2023-06-22T14:21:20;7.50;;;6.90;;
18716;SDS011;9487;50.892;6.906;2023-06-22T14:23:48;7.28;;;6.68;;
18716;SDS011;9487;50.892;6.906;2023-06-22T14:26:15;7.43;;;6.82;;
18716;SDS011;9487;50.892;6.906;2023-06-22T14:28:43;7.10;;;6.50;;
18716;SDS011;9487;50.892;6.906;2023-06-22T14:31:12;7.03;;;6.53;;
18716;SDS011;9487;50.892;6.906;2023-06-22T14:33:40;6.75;;;6.15;;
18716;SDS011;9487;50.892;6.906;2023-06-22T14:36:07;7.20;;;6.60;;
18716;SDS011;9487;50.892;6.906;2023-06-22T14:38:35;7.20;;;6.70;;
18716;SDS011;9487;50.892;6.906;2023-06-22T14:41:02;7.38;;;6.78;;
18716;SDS011;9487;50.892;6.906;2023-06-22T14:43:29;7.55;;;6.90;;
18716;SDS011;9487;50.892;6.906;2023-06-22T14:45:56;7.93;;;6.88;;
18716;SDS011;9487;50.892;6.906;2023-06-22T14:48:23;7.10;;;6.50;;
18716;SDS011;9487;50.892;6.906;2023-06-22T14:50:50;7.68;;;6.97;;
18716;SDS011;9487;50.892;6.906;2023-06-22T14:53:19;7.97;;;7.38;;
18716;SDS011;9487;50.892;6.906;2023-06-22T14:55:47;8.20;;;7.55;;
18716;SDS011;9487;50.892;6.906;2023-06-22T14:58:14;7.70;;;7.07;;
18716;SDS011;9487;50.892;6.906;2023-06-22T15:00:40;8.18;;;7.50;;
18716;SDS011;9487;50.892;6.906;2023-06-22T15:03:07;8.30;;;7.70;;
18716;SDS011;9487;50.892;6.906;2023-06-22T15:05:41;8.60;;;7.80;;
18716;SDS011;9487;50.892;6.906;2023-06-22T15:08:09;8.07;;;7.47;;
18716;SDS011;9487;50.892;6.906;2023-06-22T15:10:36;8.45;;;7.65;;
18716;SDS011;9487;50.892;6.906;2023-06-22T15:13:04;8.75;;;8.00;;
18716;SDS011;9487;50.892;6.906;2023-06-22T15:15:31;8.20;;;7.45;;
18716;SDS011;9487;50.892;6.906;2023-06-22T15:17:59;9.65;;;8.75;;
18716;SDS011;9487;50.892;6.906;2023-06-22T15:20:27;8.80;;;8.10;;
18716;SDS011;9487;50.892;6.906;2023-06-22T15:22:54;10.13;;;8.98;;
18716;SDS011;9487;50.892;6.906;2023-06-22T15:25:21;11.00;;;9.90;;
18716;SDS011;9487;50.892;6.906;2023-06-22T15:27:48;10.57;;;9.55;;
18716;SDS011;9487;50.892;6.906;2023-06-22T15:30:16;10.93;;;10.03;;
18716;SDS011;9487;50.892;6.906;2023-06-22T15:32:43;10.53;;;9.67;;
18716;SDS011;9487;50.892;6.906;2023-06-22T15:35:11;10.53;;;9.63;;
18716;SDS011;9487;50.892;6.906;2023-06-22T15:37:39;11.77;;;10.57;;
18716;SDS011;9487;50.892;6.906;2023-06-22T15:40:07;10.43;;;9.53;;
18716;SDS011;9487;50.892;6.906;2023-06-22T15:42:34;12.27;;;11.18;;
18716;SDS011;9487;50.892;6.906;2023-06-22T15:45:01;10.87;;;9.87;;
18716;SDS011;9487;50.892;6.906;2023-06-22T15:47:30;11.23;;;10.23;;
18716;SDS011;9487;50.892;6.906;2023-06-22T15:49:57;12.07;;;11.00;;
18716;SDS011;9487;50.892;6.906;2023-06-22T15:52:24;12.43;;;11.33;;
18716;SDS011;9487;50.892;6.906;2023-06-22T15:54:51;13.83;;;12.53;;
18716;SDS011;9487;50.892;6.906;2023-06-22T15:57:19;14.25;;;12.95;;
18716;SDS011;9487;50.892;6.906;2023-06-22T15:59:47;13.57;;;12.27;;
18716;SDS011;9487;50.892;6.906;2023-06-22T16:02:13;12.88;;;11.77;;
18716;SDS011;9487;50.892;6.906;2023-06-22T16:04:42;14.50;;;13.20;;
18716;SDS011;9487;50.892;6.906;2023-06-22T16:07:09;12.93;;;11.83;;
18716;SDS011;9487;50.892;6.906;2023-06-22T16:09:37;14.00;;;12.70;;
18716;SDS011;9487;50.892;6.906;2023-06-22T16:12:04;13.40;;;12.30;;
18716;SDS011;9487;50.892;6.906;2023-06-22T16:14:34;13.47;;;12.27;;
18716;SDS011;9487;50.892;6.906;2023-06-22T16:17:02;12.87;;;11.67;;
18716;SDS011;9487;50.892;6.906;2023-06-22T16:19:30;12.10;;;11.00;;
18716;SDS011;9487;50.892;6.906;2023-06-22T16:21:58;13.97;;;12.57;;
18716;SDS011;9487;50.892;6.906;2023-06-22T16:24:25;11.77;;;10.67;;
18716;SDS011;9487;50.892;6.906;2023-06-22T16:26:52;10.23;;;9.20;;
18716;SDS011;9487;50.892;6.906;2023-06-22T16:29:19;9.13;;;8.33;;
18716;SDS011;9487;50.892;6.906;2023-06-22T16:31:46;9.03;;;8.33;;
18716;SDS011;9487;50.892;6.906;2023-06-22T16:34:13;8.90;;;8.10;;
18716;SDS011;9487;50.892;6.906;2023-06-22T16:36:40;7.97;;;7.27;;
18716;SDS011;9487;50.892;6.906;2023-06-22T16:39:09;8.97;;;8.17;;
18716;SDS011;9487;50.892;6.906;2023-06-22T16:41:36;9.03;;;8.13;;
18716;SDS011;9487;50.892;6.906;2023-06-22T16:44:02;8.83;;;7.97;;
18716;SDS011;9487;50.892;6.906;2023-06-22T16:46:31;9.17;;;8.40;;
18716;SDS011;9487;50.892;6.906;2023-06-22T16:48:59;9.20;;;8.40;;
18716;SDS011;9487;50.892;6.906;2023-06-22T16:51:26;9.23;;;8.30;;
18716;SDS011;9487;50.892;6.906;2023-06-22T16:53:54;7.72;;;7.13;;
18716;SDS011;9487;50.892;6.906;2023-06-22T16:56:24;7.80;;;7.07;;
18716;SDS011;9487;50.892;6.906;2023-06-22T16:58:52;7.47;;;6.77;;
18716;SDS011;9487;50.892;6.906;2023-06-22T17:01:20;7.00;;;6.43;;
18716;SDS011;9487;50.892;6.906;2023-06-22T17:03:53;6.95;;;6.40;;
18716;SDS011;9487;50.892;6.906;2023-06-22T17:06:27;7.77;;;7.13;;
18716;SDS011;9487;50.892;6.906;2023-06-22T17:08:54;8.53;;;7.50;;
18716;SDS011;9487;50.892;6.906;2023-06-22T17:11:22;9.70;;;8.77;;
18716;SDS011;9487;50.892;6.906;2023-06-22T17:13:51;9.60;;;8.70;;
18716;SDS011;9487;50.892;6.906;2023-06-22T17:16:18;10.60;;;9.40;;
18716;SDS011;9487;50.892;6.906;2023-06-22T17:18:46;9.10;;;8.23;;
18716;SDS011;9487;50.892;6.906;2023-06-22T17:21:20;8.33;;;7.63;;
18716;SDS011;9487;50.892;6.906;2023-06-22T17:23:47;7.90;;;7.13;;
18716;SDS011;9487;50.892;6.906;2023-06-22T17:26:14;7.40;;;6.70;;
18716;SDS011;9487;50.892;6.906;2023-06-22T17:28:50;6.63;;;6.03;;
18716;SDS011;9487;50.892;6.906;2023-06-22T17:31:17;6.23;;;5.63;;
18716;SDS011;9487;50.892;6.906;2023-06-22T17:33:48;6.30;;;5.80;;
18716;SDS011;9487;50.892;6.906;2023-06-22T17:36:15;6.40;;;5.90;;
18716;SDS011;9487;50.892;6.906;2023-06-22T17:38:42;7.37;;;5.60;;
18716;SDS011;9487;50.892;6.906;2023-06-22T17:41:09;6.13;;;5.63;;
18716;SDS011;9487;50.892;6.906;2023-06-22T17:43:43;6.00;;;5.50;;
18716;SDS011;9487;50.892;6.906;2023-06-22T17:46:12;6.15;;;5.65;;
18716;SDS011;9487;50.892;6.906;2023-06-22T17:48:44;7.93;;;6.10;;
18716;SDS011;9487;50.892;6.906;2023-06-22T17:51:14;7.47;;;6.80;;
18716;SDS011;9487;50.892;6.906;2023-06-22T17:53:46;8.70;;;8.00;;
18716;SDS011;9487;50.892;6.906;2023-06-22T17:56:14;9.13;;;8.43;;
18716;SDS011;9487;50.892;6.906;2023-06-22T17:58:49;10.20;;;9.40;;
18716;SDS011;9487;50.892;6.906;2023-06-22T18:01:19;12.17;;;11.17;;
18716;SDS011;9487;50.892;6.906;2023-06-22T18:03:54;12.80;;;11.70;;
18716;SDS011;9487;50.892;6.906;2023-06-22T18:06:22;14.97;;;13.87;;
18716;SDS011;9487;50.892;6.906;2023-06-22T18:08:53;17.13;;;15.73;;
18716;SDS011;9487;50.892;6.906;2023-06-22T18:11:27;19.20;;;17.73;;
18716;SDS011;9487;50.892;6.906;2023-06-22T18:13:57;21.13;;;19.43;;
18716;SDS011;9487;50.892;6.906;2023-06-22T18:16:27;21.93;;;20.23;;
18716;SDS011;9487;50.892;6.906;2023-06-22T18:18:55;23.17;;;21.47;;
18716;SDS011;9487;50.892;6.906;2023-06-22T18:21:23;34.33;;;31.80;;
18716;SDS011;9487;50.892;6.906;2023-06-22T18:23:51;36.23;;;33.43;;
18716;SDS011;9487;50.892;6.906;2023-06-22T18:26:19;35.53;;;32.93;;
18716;SDS011;9487;50.892;6.906;2023-06-22T18:28:47;32.47;;;29.97;;
18716;SDS011;9487;50.892;6.906;2023-06-22T18:31:17;25.70;;;23.40;;
18716;SDS011;9487;50.892;6.906;2023-06-22T18:33:46;26.30;;;24.40;;
18716;SDS011;9487;50.892;6.906;2023-06-22T18:36:14;25.40;;;23.43;;
18716;SDS011;9487;50.892;6.906;2023-06-22T18:38:46;24.03;;;22.23;;
18716;SDS011;9487;50.892;6.906;2023-06-22T18:41:21;19.70;;;18.20;;
18716;SDS011;9487;50.892;6.906;2023-06-22T18:43:51;19.63;;;18.07;;
18716;SDS011;9487;50.892;6.906;2023-06-22T18:46:29;22.17;;;20.40;;
18716;SDS011;9487;50.892;6.906;2023-06-22T18:49:00;21.80;;;20.10;;
18716;SDS011;9487;50.892;6.906;2023-06-22T18:51:28;20.97;;;19.47;;
18716;SDS011;9487;50.892;6.906;2023-06-22T18:54:04;22.30;;;20.50;;
18716;SDS011;9487;50.892;6.906;2023-06-22T18:56:32;22.63;;;21.00;;
18716;SDS011;9487;50.892;6.906;2023-06-22T18:59:17;25.33;;;23.53;;
18716;SDS011;9487;50.892;6.906;2023-06-22T19:02:04;25.83;;;23.93;;
18716;SDS011;9487;50.892;6.906;2023-06-22T19:04:36;19.93;;;18.43;;
18716;SDS011;9487;50.892;6.906;2023-06-22T19:07:04;13.83;;;12.83;;
18716;SDS011;9487;50.892;6.906;2023-06-22T19:09:33;15.20;;;14.10;;
18716;SDS011;9487;50.892;6.906;2023-06-22T19:17:35;9.70;;;9.00;;
18716;SDS011;9487;50.892;6.906;2023-06-22T19:20:05;9.13;;;8.43;;
18716;SDS011;9487;50.892;6.906;2023-06-22T19:22:46;9.90;;;9.10;;
18716;SDS011;9487;50.892;6.906;2023-06-22T19:25:18;5.97;;;5.57;;
18716;SDS011;9487;50.892;6.906;2023-06-22T19:27:47;8.53;;;6.20;;
18716;SDS011;9487;50.892;6.906;2023-06-22T19:30:16;6.20;;;5.70;;
18716;SDS011;9487;50.892;6.906;2023-06-22T19:32:43;6.30;;;5.80;;
18716;SDS011;9487;50.892;6.906;2023-06-22T19:35:13;6.40;;;5.80;;
18716;SDS011;9487;50.892;6.906;2023-06-22T19:37:40;5.87;;;5.37;;
18716;SDS011;9487;50.892;6.906;2023-06-22T19:40:09;5.73;;;5.23;;
18716;SDS011;9487;50.892;6.906;2023-06-22T19:42:37;5.27;;;4.77;;
18716;SDS011;9487;50.892;6.906;2023-06-22T19:45:05;5.80;;;5.30;;
18716;SDS011;9487;50.892;6.906;2023-06-22T19:47:33;5.23;;;4.70;;
18716;SDS011;9487;50.892;6.906;2023-06-22T19:50:00;5.53;;;5.03;;
18716;SDS011;9487;50.892;6.906;2023-06-22T19:52:34;5.97;;;5.47;;
18716;SDS011;9487;50.892;6.906;2023-06-22T19:55:02;7.50;;;6.90;;
18716;SDS011;9487;50.892;6.906;2023-06-22T19:57:33;9.87;;;8.67;;
18716;SDS011;9487;50.892;6.906;2023-06-22T20:00:01;10.33;;;9.20;;
18716;SDS011;9487;50.892;6.906;2023-06-22T20:02:33;11.87;;;10.87;;
18716;SDS011;9487;50.892;6.906;2023-06-22T20:05:03;13.03;;;11.73;;
18716;SDS011;9487;50.892;6.906;2023-06-22T20:07:35;11.40;;;10.30;;
18716;SDS011;9487;50.892;6.906;2023-06-22T20:10:13;11.30;;;10.33;;
18716;SDS011;9487;50.892;6.906;2023-06-22T20:12:40;12.57;;;11.47;;
18716;SDS011;9487;50.892;6.906;2023-06-22T20:15:20;11.37;;;10.37;;
18716;SDS011;9487;50.892;6.906;2023-06-22T20:17:54;12.10;;;11.10;;
18716;SDS011;9487;50.892;6.906;2023-06-22T20:20:23;11.63;;;10.53;;
18716;SDS011;9487;50.892;6.906;2023-06-22T20:22:55;11.43;;;10.33;;
18716;SDS011;9487;50.892;6.906;2023-06-22T20:25:24;10.83;;;9.77;;
18716;SDS011;9487;50.892;6.906;2023-06-22T20:27:53;12.13;;;11.10;;
18716;SDS011;9487;50.892;6.906;2023-06-22T20:30:21;11.87;;;10.77;;
18716;SDS011;9487;50.892;6.906;2023-06-22T20:32:50;11.50;;;10.50;;
18716;SDS011;9487;50.892;6.906;2023-06-22T20:35:19;11.50;;;10.40;;
18716;SDS011;9487;50.892;6.906;2023-06-22T20:37:47;11.50;;;10.37;;
18716;SDS011;9487;50.892;6.906;2023-06-22T20:40:19;11.33;;;10.33;;
18716;SDS011;9487;50.892;6.906;2023-06-22T20:42:51;12.33;;;11.23;;
18716;SDS011;9487;50.892;6.906;2023-06-22T20:45:21;12.83;;;11.53;;
18716;SDS011;9487;50.892;6.906;2023-06-22T20:47:49;12.73;;;11.53;;
18716;SDS011;9487;50.892;6.906;2023-06-22T20:50:17;14.20;;;13.00;;
18716;SDS011;9487;50.892;6.906;2023-06-22T20:52:44;13.57;;;12.27;;
18716;SDS011;9487;50.892;6.906;2023-06-22T20:55:12;15.10;;;13.70;;
18716;SDS011;9487;50.892;6.906;2023-06-22T20:57:40;14.07;;;12.87;;
18716;SDS011;9487;50.892;6.906;2023-06-22T21:00:09;16.03;;;14.47;;
18716;SDS011;9487;50.892;6.906;2023-06-22T21:02:37;15.10;;;13.80;;
18716;SDS011;9487;50.892;6.906;2023-06-22T21:05:05;15.50;;;14.10;;
18716;SDS011;9487;50.892;6.906;2023-06-22T21:07:32;15.83;;;14.43;;
18716;SDS011;9487;50.892;6.906;2023-06-22T21:09:59;15.47;;;14.17;;
18716;SDS011;9487;50.892;6.906;2023-06-22T21:12:26;15.90;;;14.60;;
18716;SDS011;9487;50.892;6.906;2023-06-22T21:14:55;15.87;;;14.47;;
18716;SDS011;9487;50.892;6.906;2023-06-22T21:17:22;16.10;;;14.67;;
18716;SDS011;9487;50.892;6.906;2023-06-22T21:19:49;18.33;;;16.63;;
18716;SDS011;9487;50.892;6.906;2023-06-22T21:22:17;18.63;;;16.93;;
18716;SDS011;9487;50.892;6.906;2023-06-22T21:24:44;17.27;;;15.67;;
18716;SDS011;9487;50.892;6.906;2023-06-22T21:27:12;16.53;;;15.03;;
18716;SDS011;9487;50.892;6.906;2023-06-22T21:29:39;17.13;;;15.67;;
18716;SDS011;9487;50.892;6.906;2023-06-22T21:32:08;17.13;;;15.53;;
18716;SDS011;9487;50.892;6.906;2023-06-22T21:34:35;19.40;;;17.60;;
18716;SDS011;9487;50.892;6.906;2023-06-22T21:37:02;17.97;;;16.33;;
18716;SDS011;9487;50.892;6.906;2023-06-22T21:39:29;18.13;;;16.43;;
18716;SDS011;9487;50.892;6.906;2023-06-22T21:41:56;19.67;;;17.87;;
18716;SDS011;9487;50.892;6.906;2023-06-22T21:44:23;17.37;;;15.87;;
18716;SDS011;9487;50.892;6.906;2023-06-22T21:46:50;17.83;;;16.30;;
18716;SDS011;9487;50.892;6.906;2023-06-22T21:49:18;18.17;;;16.60;;
18716;SDS011;9487;50.892;6.906;2023-06-22T21:51:45;20.73;;;18.83;;
18716;SDS011;9487;50.892;6.906;2023-06-22T21:54:12;19.87;;;18.10;;
18716;SDS011;9487;50.892;6.906;2023-06-22T21:56:40;20.13;;;18.33;;
18716;SDS011;9487;50.892;6.906;2023-06-22T21:59:07;20.43;;;18.73;;
18716;SDS011;9487;50.892;6.906;2023-06-22T22:01:34;21.33;;;19.53;;
18716;SDS011;9487;50.892;6.906;2023-06-22T22:04:01;21.00;;;19.00;;
18716;SDS011;9487;50.892;6.906;2023-06-22T22:06:30;19.67;;;17.93;;
18716;SDS011;9487;50.892;6.906;2023-06-22T22:08:58;21.27;;;19.47;;
18716;SDS011;9487;50.892;6.906;2023-06-22T22:11:25;22.97;;;20.97;;
18716;SDS011;9487;50.892;6.906;2023-06-22T22:13:52;23.73;;;21.53;;
18716;SDS011;9487;50.892;6.906;2023-06-22T22:16:19;23.40;;;21.30;;
18716;SDS011;9487;50.892;6.906;2023-06-22T22:18:46;24.30;;;22.13;;
18716;SDS011;9487;50.892;6.906;2023-06-22T22:21:13;25.30;;;23.03;;
18716;SDS011;9487;50.892;6.906;2023-06-22T22:23:41;25.93;;;23.60;;
18716;SDS011;9487;50.892;6.906;2023-06-22T22:26:08;26.53;;;24.23;;
18716;SDS011;9487;50.892;6.906;2023-06-22T22:28:35;27.83;;;25.30;;
18716;SDS011;9487;50.892;6.906;2023-06-22T22:31:02;28.00;;;25.57;;
18716;SDS011;9487;50.892;6.906;2023-06-22T22:33:29;27.00;;;24.50;;
18716;SDS011;9487;50.892;6.906;2023-06-22T22:35:56;26.03;;;23.73;;
18716;SDS011;9487;50.892;6.906;2023-06-22T22:38:24;26.77;;;24.37;;
18716;SDS011;9487;50.892;6.906;2023-06-22T22:40:52;27.87;;;25.47;;
18716;SDS011;9487;50.892;6.906;2023-06-22T22:43:19;28.77;;;26.17;;
18716;SDS011;9487;50.892;6.906;2023-06-22T22:45:46;29.50;;;26.80;;
18716;SDS011;9487;50.892;6.906;2023-06-22T22:48:13;29.97;;;27.27;;
18716;SDS011;9487;50.892;6.906;2023-06-22T22:50:40;22.80;;;20.77;;
18716;SDS011;9487;50.892;6.906;2023-06-22T22:53:07;22.67;;;20.50;;
18716;SDS011;9487;50.892;6.906;2023-06-22T22:55:34;24.43;;;22.13;;
18716;SDS011;9487;50.892;6.906;2023-06-22T22:58:03;26.10;;;23.77;;
18716;SDS011;9487;50.892;6.906;2023-06-22T23:00:31;26.83;;;24.43;;
18716;SDS011;9487;50.892;6.906;2023-06-22T23:02:58;27.80;;;25.00;;
18716;SDS011;9487;50.892;6.906;2023-06-22T23:05:26;24.80;;;22.70;;
18716;SDS011;9487;50.892;6.906;2023-06-22T23:07:53;23.10;;;21.10;;
18716;SDS011;9487;50.892;6.906;2023-06-22T23:10:20;20.73;;;18.83;;
18716;SDS011;9487;50.892;6.906;2023-06-22T23:12:47;21.00;;;19.10;;
18716;SDS011;9487;50.892;6.906;2023-06-22T23:15:16;21.57;;;19.47;;
18716;SDS011;9487;50.892;6.906;2023-06-22T23:17:43;20.00;;;18.10;;
18716;SDS011;9487;50.892;6.906;2023-06-22T23:20:10;21.17;;;19.27;;
18716;SDS011;9487;50.892;6.906;2023-06-22T23:22:42;20.90;;;18.80;;
18716;SDS011;9487;50.892;6.906;2023-06-22T23:25:09;22.13;;;19.87;;
18716;SDS011;9487;50.892;6.906;2023-06-22T23:27:36;21.70;;;19.67;;
18716;SDS011;9487;50.892;6.906;2023-06-22T23:30:03;24.07;;;21.73;;
18716;SDS011;9487;50.892;6.906;2023-06-22T23:32:35;25.73;;;23.30;;
18716;SDS011;9487;50.892;6.906;2023-06-22T23:35:04;25.70;;;23.27;;
18716;SDS011;9487;50.892;6.906;2023-06-22T23:37:35;24.67;;;22.37;;
18716;SDS011;9487;50.892;6.906;2023-06-22T23:40:02;24.50;;;22.27;;
18716;SDS011;9487;50.892;6.906;2023-06-22T23:42:36;24.20;;;21.90;;
18716;SDS011;9487;50.892;6.906;2023-06-22T23:45:04;23.53;;;21.33;;
18716;SDS011;9487;50.892;6.906;2023-06-22T23:47:31;24.47;;;22.17;;
18716;SDS011;9487;50.892;6.906;2023-06-22T23:50:02;24.53;;;22.23;;
18716;SDS011;9487;50.892;6.906;2023-06-22T23:52:29;26.17;;;23.90;;
18716;SDS011;9487;50.892;6.906;2023-06-22T23:54:56;26.87;;;24.43;;
18716;SDS011;9487;50.892;6.906;2023-06-22T23:57:23;26.83;;;24.23;;
18716;SDS011;9487;50.892;6.906;2023-06-22T23:59:50;27.10;;;24.60;;
